createdAt,value
2022-11-03T00:01:57.877Z,9.80
2022-11-03T00:07:04.892Z,8.20
2022-11-03T00:12:13.029Z,9.77
2022-11-03T00:17:19.831Z,9.27
2022-11-03T00:22:26.693Z,8.57
2022-11-03T00:27:35.955Z,11.45
2022-11-03T00:32:42.571Z,7.63
2022-11-03T00:37:49.130Z,7.35
2022-11-03T00:42:57.319Z,9.82
2022-11-03T00:48:26.563Z,8.13
2022-11-03T00:53:34.271Z,7.82
2022-11-03T00:58:42.804Z,8.65
2022-11-03T01:04:05.697Z,7.28
2022-11-03T01:09:12.465Z,7.57
2022-11-03T01:14:20.592Z,7.70
2022-11-03T01:19:27.368Z,5.17
2022-11-03T01:24:33.955Z,6.13
2022-11-03T01:29:42.196Z,4.30
2022-11-03T01:34:48.551Z,9.50
2022-11-03T01:39:55.479Z,11.55
2022-11-03T01:45:03.703Z,9.98
2022-11-03T01:50:15.383Z,6.40
2022-11-03T01:55:26.262Z,5.50
2022-11-03T02:00:34.414Z,6.60
2022-11-03T02:05:42.083Z,5.80
2022-11-03T02:10:50.854Z,4.43
2022-11-03T02:16:01.318Z,5.68
2022-11-03T02:21:27.265Z,1.75
2022-11-03T02:26:35.981Z,4.38
2022-11-03T02:31:51.281Z,8.18
2022-11-03T02:37:04.212Z,5.70
2022-11-03T02:42:14.382Z,7.22
2022-11-03T02:47:22.302Z,10.13
2022-11-03T02:52:40.800Z,6.65
2022-11-03T02:57:55.167Z,3.08
2022-11-03T03:03:09.436Z,3.28
2022-11-03T03:08:18.140Z,3.47
2022-11-03T03:13:27.078Z,8.52
2022-11-03T03:18:44.539Z,12.10
2022-11-03T03:23:56.654Z,4.93
2022-11-03T03:29:12.444Z,3.17
2022-11-03T03:34:34.573Z,9.07
2022-11-03T03:39:45.768Z,8.07
2022-11-03T03:44:54.622Z,3.22
2022-11-03T03:50:02.654Z,5.53
2022-11-03T03:55:18.723Z,12.15
2022-11-03T04:00:26.761Z,5.75
2022-11-03T04:05:33.277Z,5.13
2022-11-03T04:10:39.634Z,6.45
2022-11-03T04:16:04.758Z,10.50
2022-11-03T04:21:32.868Z,10.48
2022-11-03T04:26:39.638Z,9.73
2022-11-03T04:31:47.671Z,7.18
2022-11-03T04:36:54.132Z,9.80
2022-11-03T04:42:00.722Z,14.25
2022-11-03T04:47:13.359Z,8.10
2022-11-03T04:52:23.147Z,7.13
2022-11-03T04:57:30.864Z,7.50
2022-11-03T05:02:38.829Z,7.55
2022-11-03T05:07:45.438Z,8.75
2022-11-03T05:12:54.277Z,6.53
2022-11-03T05:18:04.249Z,7.07
2022-11-03T05:23:14.725Z,8.00
2022-11-03T05:28:27.889Z,12.02
2022-11-03T05:33:39.121Z,7.60
2022-11-03T05:38:45.207Z,9.20
2022-11-03T05:43:59.261Z,11.70
2022-11-03T05:49:08.564Z,15.88
2022-11-03T05:54:24.061Z,6.30
2022-11-03T05:59:31.153Z,8.57
2022-11-03T06:04:40.800Z,6.50
2022-11-03T06:09:46.843Z,6.55
2022-11-03T06:14:53.946Z,4.93
2022-11-03T06:20:03.377Z,7.03
2022-11-03T06:25:22.639Z,9.13
2022-11-03T06:30:31.352Z,10.07
2022-11-03T06:40:44.649Z,8.73
2022-11-03T06:45:57.180Z,8.85
2022-11-03T06:51:20.197Z,11.57
2022-11-03T06:56:30.367Z,12.80
2022-11-03T07:01:37.870Z,11.85
2022-11-03T07:06:52.797Z,13.05
2022-11-03T07:12:02.413Z,12.65
2022-11-03T07:17:17.199Z,8.35
2022-11-03T07:22:28.003Z,14.35
2022-11-03T07:27:38.178Z,11.43
2022-11-03T07:32:44.860Z,10.80
2022-11-03T07:37:54.201Z,11.80
2022-11-03T07:43:11.528Z,18.88
2022-11-03T07:48:24.557Z,16.67
2022-11-03T07:53:43.775Z,13.05
2022-11-03T08:04:06.454Z,9.43
2022-11-03T08:09:14.361Z,9.40
2022-11-03T08:14:21.042Z,8.35
2022-11-03T08:19:27.530Z,8.55
2022-11-03T08:24:35.850Z,9.23
2022-11-03T08:29:42.387Z,14.48
2022-11-03T08:34:48.828Z,9.65
2022-11-03T08:39:56.858Z,12.45
2022-11-03T08:45:03.542Z,7.40
2022-11-03T08:50:10.830Z,10.27
2022-11-03T08:55:19.091Z,11.82
2022-11-03T09:00:25.767Z,13.73
2022-11-03T09:05:32.760Z,12.75
2022-11-03T09:10:43.510Z,12.00
2022-11-03T09:15:50.657Z,12.20
2022-11-03T09:20:57.613Z,10.30
2022-11-03T09:26:06.524Z,10.02
2022-11-03T09:31:13.157Z,10.27
2022-11-03T09:36:19.388Z,8.55
2022-11-03T09:41:45.876Z,7.90
2022-11-03T09:46:58.245Z,9.23
2022-11-03T09:52:06.263Z,7.28
2022-11-03T09:57:18.187Z,8.80
2022-11-03T10:02:30.422Z,10.65
2022-11-03T10:07:37.513Z,9.07
2022-11-03T10:12:45.922Z,7.72
2022-11-03T10:17:58.478Z,8.45
2022-11-03T10:23:05.003Z,7.63
2022-11-03T10:28:22.568Z,7.30
2022-11-03T10:33:33.976Z,6.25
2022-11-03T10:38:40.190Z,11.15
2022-11-03T10:44:02.271Z,11.38
2022-11-03T10:49:16.553Z,9.65
2022-11-03T10:54:25.287Z,9.00
2022-11-03T10:59:37.098Z,9.18
2022-11-03T11:04:43.678Z,9.07
2022-11-03T11:09:50.155Z,4.07
2022-11-03T11:15:00.127Z,7.40
2022-11-03T11:20:43.502Z,8.52
2022-11-03T11:26:29.992Z,6.25
2022-11-03T11:31:38.569Z,6.20
2022-11-03T11:36:48.050Z,2.78
2022-11-03T11:48:00.158Z,10.35
2022-11-03T11:53:27.610Z,8.98
2022-11-03T11:59:03.342Z,9.98
2022-11-03T12:04:20.707Z,5.70
2022-11-03T12:09:29.647Z,6.68
2022-11-03T12:14:38.262Z,5.65
2022-11-03T12:19:48.252Z,8.00
2022-11-03T12:24:56.043Z,5.10
2022-11-03T12:30:05.132Z,6.82
2022-11-03T12:40:20.214Z,6.03
2022-11-03T12:45:26.285Z,7.30
2022-11-03T12:50:34.679Z,6.85
2022-11-03T12:55:43.794Z,12.48
2022-11-03T13:00:54.993Z,14.52
2022-11-03T13:06:05.610Z,6.13
2022-11-03T13:11:25.296Z,5.70
2022-11-03T13:16:31.332Z,3.60
2022-11-03T13:21:39.165Z,4.00
2022-11-03T13:26:45.096Z,4.57
2022-11-03T13:31:51.300Z,3.03
2022-11-03T13:36:58.986Z,6.10
2022-11-03T13:42:05.029Z,6.50
2022-11-03T13:47:11.985Z,5.53
2022-11-03T13:52:19.633Z,4.07
2022-11-03T14:08:19.265Z,4.22
2022-11-03T14:13:25.282Z,5.65
2022-11-03T14:18:31.283Z,8.13
2022-11-03T14:23:38.802Z,5.05
2022-11-03T14:28:45.250Z,5.00
2022-11-03T14:33:51.261Z,4.85
2022-11-03T14:38:58.772Z,15.52
2022-11-03T14:44:05.041Z,5.38
2022-11-03T14:49:11.354Z,12.43
2022-11-03T14:54:18.808Z,10.57
2022-11-03T14:59:25.687Z,11.23
2022-11-03T15:04:31.666Z,4.50
2022-11-03T15:09:39.127Z,12.50
2022-11-03T15:14:45.101Z,18.38
2022-11-03T15:19:51.471Z,32.38
2022-11-03T15:25:15.996Z,37.42
2022-11-03T15:30:24.794Z,38.80
2022-11-03T15:35:31.014Z,28.90
2022-11-03T15:40:38.554Z,23.98
2022-11-03T15:45:44.656Z,26.73
2022-11-03T15:50:51.155Z,48.35
2022-11-03T15:55:58.973Z,51.85
2022-11-03T16:01:06.024Z,60.30
2022-11-03T16:06:12.473Z,59.85
2022-11-03T16:11:19.919Z,74.28
2022-11-03T16:16:27.217Z,83.43
2022-11-03T16:21:33.823Z,98.65
2022-11-03T16:26:41.223Z,122.00
2022-11-03T16:31:49.488Z,64.57
2022-11-03T16:36:56.479Z,36.63
2022-11-03T16:42:05.465Z,98.20
2022-11-03T16:47:12.085Z,38.47
2022-11-03T16:52:18.917Z,37.15
2022-11-03T16:57:26.337Z,61.58
2022-11-03T17:02:40.614Z,51.17
2022-11-03T17:07:52.042Z,36.92
2022-11-03T17:13:03.063Z,32.72
2022-11-03T17:18:12.042Z,39.88
2022-11-03T17:23:18.571Z,34.15
2022-11-03T17:28:28.248Z,37.20
2022-11-03T17:33:35.172Z,32.17
2022-11-03T17:38:41.579Z,34.35
2022-11-03T17:43:50.195Z,36.03
2022-11-03T17:48:56.649Z,33.00
2022-11-03T17:54:08.800Z,35.85
2022-11-03T17:59:18.635Z,33.50
2022-11-03T18:04:25.548Z,27.90
2022-11-03T18:09:33.079Z,40.10
2022-11-03T18:14:40.827Z,51.42
2022-11-03T18:19:47.762Z,46.63
2022-11-03T18:24:54.558Z,65.03
2022-11-03T18:30:03.708Z,68.47
2022-11-03T18:35:19.218Z,57.97
2022-11-03T18:40:27.314Z,61.67
2022-11-03T18:45:36.603Z,54.00
2022-11-03T18:50:45.317Z,51.65
2022-11-03T18:55:52.583Z,58.10
2022-11-03T19:01:03.122Z,67.63
2022-11-03T19:06:16.374Z,53.83
2022-11-03T19:11:24.551Z,49.63
2022-11-03T19:16:33.359Z,52.78
2022-11-03T19:21:40.707Z,43.22
2022-11-03T19:26:56.349Z,48.10
2022-11-03T19:32:18.160Z,42.08
2022-11-03T19:37:24.996Z,39.70
2022-11-03T19:42:33.860Z,38.63
2022-11-03T19:48:10.703Z,41.88
2022-11-03T19:53:20.851Z,28.02
2022-11-03T19:58:30.454Z,24.27
2022-11-03T20:03:40.582Z,22.52
2022-11-03T20:08:50.583Z,25.50
2022-11-03T20:14:09.562Z,26.67
2022-11-03T20:19:18.353Z,31.50
2022-11-03T20:24:26.155Z,20.60
2022-11-03T20:29:34.919Z,20.17
2022-11-03T20:34:44.552Z,22.73
2022-11-03T20:39:52.283Z,25.30
2022-11-03T20:45:00.601Z,24.27
2022-11-03T20:50:11.427Z,32.90
2022-11-03T20:55:20.253Z,25.15
2022-11-03T21:00:29.093Z,31.33
2022-11-03T21:05:37.886Z,29.30
2022-11-03T21:10:45.613Z,27.45
2022-11-03T21:16:23.988Z,29.52
2022-11-03T21:21:33.519Z,25.23
2022-11-03T21:26:42.529Z,23.75
2022-11-03T21:31:49.558Z,24.70
2022-11-03T21:36:57.882Z,19.92
2022-11-03T21:42:24.008Z,19.47
2022-11-03T21:47:30.538Z,20.50
2022-11-03T21:52:38.525Z,18.75
2022-11-03T21:57:45.031Z,20.60
2022-11-03T22:02:51.599Z,15.18
2022-11-03T22:07:59.618Z,15.13
2022-11-03T22:13:07.395Z,15.57
2022-11-03T22:18:14.214Z,19.05
2022-11-03T22:23:39.565Z,15.93
2022-11-03T22:28:46.243Z,15.43
2022-11-03T22:34:09.839Z,16.23
2022-11-03T22:39:35.243Z,15.38
2022-11-03T22:44:58.932Z,14.43
2022-11-03T22:50:05.935Z,15.27
2022-11-03T22:55:14.077Z,12.50
2022-11-03T23:00:22.889Z,14.95
2022-11-03T23:05:29.470Z,15.20
2022-11-03T23:10:37.421Z,16.73
2022-11-03T23:15:44.605Z,14.57
2022-11-03T23:21:09.916Z,14.70
2022-11-03T23:26:18.894Z,17.40
2022-11-03T23:31:25.554Z,11.82
2022-11-03T23:36:32.442Z,15.32
2022-11-03T23:41:40.485Z,21.23
2022-11-03T23:47:04.565Z,28.63
2022-11-03T23:52:11.485Z,19.52
2022-11-03T23:57:36.902Z,17.67
